sensor_id;sensor_type;location;lat;lon;timestamp;temperature;humidity
59881;DHT22;45751;51.380;10.326;2023-09-19T00:00:41;17.90;99.10
59881;DHT22;45751;51.380;10.326;2023-09-19T00:03:09;17.90;99.10
59881;DHT22;45751;51.380;10.326;2023-09-19T00:05:38;17.90;99.10
59881;DHT22;45751;51.380;10.326;2023-09-19T00:08:05;17.90;99.00
59881;DHT22;45751;51.380;10.326;2023-09-19T00:10:33;17.90;98.80
59881;DHT22;45751;51.380;10.326;2023-09-19T00:13:03;17.80;98.70
59881;DHT22;45751;51.380;10.326;2023-09-19T00:15:39;17.80;98.70
59881;DHT22;45751;51.380;10.326;2023-09-19T00:18:07;17.80;98.30
59881;DHT22;45751;51.380;10.326;2023-09-19T00:20:36;17.80;98.30
59881;DHT22;45751;51.380;10.326;2023-09-19T00:23:04;17.90;98.40
59881;DHT22;45751;51.380;10.326;2023-09-19T00:25:36;17.80;98.20
59881;DHT22;45751;51.380;10.326;2023-09-19T00:28:05;17.80;98.10
59881;DHT22;45751;51.380;10.326;2023-09-19T00:30:34;17.80;97.70
59881;DHT22;45751;51.380;10.326;2023-09-19T00:33:01;17.80;97.90
59881;DHT22;45751;51.380;10.326;2023-09-19T00:35:33;17.70;97.50
59881;DHT22;45751;51.380;10.326;2023-09-19T00:38:00;17.70;97.40
59881;DHT22;45751;51.380;10.326;2023-09-19T00:40:27;17.80;97.20
59881;DHT22;45751;51.380;10.326;2023-09-19T00:42:57;17.80;96.90
59881;DHT22;45751;51.380;10.326;2023-09-19T00:45:27;17.70;97.00
59881;DHT22;45751;51.380;10.326;2023-09-19T00:47:55;17.70;96.50
59881;DHT22;45751;51.380;10.326;2023-09-19T00:50:25;17.70;96.30
59881;DHT22;45751;51.380;10.326;2023-09-19T00:52:55;17.80;96.30
59881;DHT22;45751;51.380;10.326;2023-09-19T00:55:26;17.50;96.20
59881;DHT22;45751;51.380;10.326;2023-09-19T00:57:55;17.60;96.10
59881;DHT22;45751;51.380;10.326;2023-09-19T01:00:22;17.60;96.10
59881;DHT22;45751;51.380;10.326;2023-09-19T01:02:50;17.60;96.10
59881;DHT22;45751;51.380;10.326;2023-09-19T01:05:18;17.60;96.10
59881;DHT22;45751;51.380;10.326;2023-09-19T01:07:45;17.50;95.80
59881;DHT22;45751;51.380;10.326;2023-09-19T01:10:14;17.50;95.90
59881;DHT22;45751;51.380;10.326;2023-09-19T01:13:03;17.50;96.10
59881;DHT22;45751;51.380;10.326;2023-09-19T01:20:37;17.40;96.00
59881;DHT22;45751;51.380;10.326;2023-09-19T01:32:01;17.40;94.90
59881;DHT22;45751;51.380;10.326;2023-09-19T01:34:50;17.40;94.50
59881;DHT22;45751;51.380;10.326;2023-09-19T01:37:20;17.30;94.20
59881;DHT22;45751;51.380;10.326;2023-09-19T01:39:57;17.30;94.10
59881;DHT22;45751;51.380;10.326;2023-09-19T01:42:31;17.30;94.40
59881;DHT22;45751;51.380;10.326;2023-09-19T01:47:37;17.20;93.90
59881;DHT22;45751;51.380;10.326;2023-09-19T01:53:04;17.20;94.50
59881;DHT22;45751;51.380;10.326;2023-09-19T01:55:36;17.10;94.70
59881;DHT22;45751;51.380;10.326;2023-09-19T01:58:08;17.10;94.80
59881;DHT22;45751;51.380;10.326;2023-09-19T02:00:37;17.10;94.40
59881;DHT22;45751;51.380;10.326;2023-09-19T02:03:07;17.00;94.20
59881;DHT22;45751;51.380;10.326;2023-09-19T02:05:35;17.00;93.90
59881;DHT22;45751;51.380;10.326;2023-09-19T02:08:02;17.00;94.00
59881;DHT22;45751;51.380;10.326;2023-09-19T02:10:29;16.90;93.90
59881;DHT22;45751;51.380;10.326;2023-09-19T02:12:58;16.90;94.40
59881;DHT22;45751;51.380;10.326;2023-09-19T02:15:25;16.80;93.80
59881;DHT22;45751;51.380;10.326;2023-09-19T02:17:54;16.80;94.10
59881;DHT22;45751;51.380;10.326;2023-09-19T02:20:23;16.80;94.10
59881;DHT22;45751;51.380;10.326;2023-09-19T02:22:51;16.70;94.10
59881;DHT22;45751;51.380;10.326;2023-09-19T02:25:18;16.60;94.20
59881;DHT22;45751;51.380;10.326;2023-09-19T02:27:46;16.70;94.40
59881;DHT22;45751;51.380;10.326;2023-09-19T02:30:13;16.60;94.40
59881;DHT22;45751;51.380;10.326;2023-09-19T02:32:42;16.60;94.30
59881;DHT22;45751;51.380;10.326;2023-09-19T02:35:09;16.50;94.30
59881;DHT22;45751;51.380;10.326;2023-09-19T02:37:38;16.50;94.30
59881;DHT22;45751;51.380;10.326;2023-09-19T02:40:05;16.40;94.30
59881;DHT22;45751;51.380;10.326;2023-09-19T02:42:52;16.40;94.20
59881;DHT22;45751;51.380;10.326;2023-09-19T02:45:21;16.40;93.90
59881;DHT22;45751;51.380;10.326;2023-09-19T02:47:49;16.30;94.00
59881;DHT22;45751;51.380;10.326;2023-09-19T02:50:17;16.30;94.10
59881;DHT22;45751;51.380;10.326;2023-09-19T02:52:45;16.20;94.20
59881;DHT22;45751;51.380;10.326;2023-09-19T02:55:17;16.10;94.30
59881;DHT22;45751;51.380;10.326;2023-09-19T02:57:50;16.10;95.00
59881;DHT22;45751;51.380;10.326;2023-09-19T03:00:20;16.00;94.70
59881;DHT22;45751;51.380;10.326;2023-09-19T03:02:54;16.00;94.70
59881;DHT22;45751;51.380;10.326;2023-09-19T03:05:22;16.00;94.90
59881;DHT22;45751;51.380;10.326;2023-09-19T03:07:51;15.90;95.00
59881;DHT22;45751;51.380;10.326;2023-09-19T03:10:20;15.90;95.10
59881;DHT22;45751;51.380;10.326;2023-09-19T03:12:48;15.80;95.10
59881;DHT22;45751;51.380;10.326;2023-09-19T03:15:17;15.80;95.30
59881;DHT22;45751;51.380;10.326;2023-09-19T03:17:50;15.70;95.30
59881;DHT22;45751;51.380;10.326;2023-09-19T03:20:21;15.70;95.50
59881;DHT22;45751;51.380;10.326;2023-09-19T03:22:48;15.70;95.50
59881;DHT22;45751;51.380;10.326;2023-09-19T03:25:16;15.60;95.50
59881;DHT22;45751;51.380;10.326;2023-09-19T03:27:48;15.60;95.70
59881;DHT22;45751;51.380;10.326;2023-09-19T03:30:16;15.60;95.80
59881;DHT22;45751;51.380;10.326;2023-09-19T03:32:46;15.50;95.90
59881;DHT22;45751;51.380;10.326;2023-09-19T03:35:14;15.50;95.80
59881;DHT22;45751;51.380;10.326;2023-09-19T03:37:42;15.50;95.80
59881;DHT22;45751;51.380;10.326;2023-09-19T03:40:10;15.50;95.80
59881;DHT22;45751;51.380;10.326;2023-09-19T03:42:41;15.50;95.70
59881;DHT22;45751;51.380;10.326;2023-09-19T03:45:11;15.40;95.40
59881;DHT22;45751;51.380;10.326;2023-09-19T03:47:44;15.40;95.30
59881;DHT22;45751;51.380;10.326;2023-09-19T03:50:16;15.40;95.10
59881;DHT22;45751;51.380;10.326;2023-09-19T03:52:45;15.40;95.10
59881;DHT22;45751;51.380;10.326;2023-09-19T03:55:12;15.40;95.00
59881;DHT22;45751;51.380;10.326;2023-09-19T03:57:40;15.40;94.90
59881;DHT22;45751;51.380;10.326;2023-09-19T04:00:08;15.30;94.90
59881;DHT22;45751;51.380;10.326;2023-09-19T04:02:39;15.30;94.80
59881;DHT22;45751;51.380;10.326;2023-09-19T04:05:07;15.20;94.80
59881;DHT22;45751;51.380;10.326;2023-09-19T04:07:35;15.20;94.80
59881;DHT22;45751;51.380;10.326;2023-09-19T04:10:02;15.20;94.60
59881;DHT22;45751;51.380;10.326;2023-09-19T04:12:30;15.20;94.70
59881;DHT22;45751;51.380;10.326;2023-09-19T04:14:57;15.20;94.70
59881;DHT22;45751;51.380;10.326;2023-09-19T04:17:24;15.10;94.70
59881;DHT22;45751;51.380;10.326;2023-09-19T04:19:51;15.10;94.70
59881;DHT22;45751;51.380;10.326;2023-09-19T04:22:18;15.10;94.80
59881;DHT22;45751;51.380;10.326;2023-09-19T04:24:45;15.10;94.80
59881;DHT22;45751;51.380;10.326;2023-09-19T04:27:12;15.00;94.80
59881;DHT22;45751;51.380;10.326;2023-09-19T04:29:42;15.00;94.70
59881;DHT22;45751;51.380;10.326;2023-09-19T04:32:09;15.00;94.60
59881;DHT22;45751;51.380;10.326;2023-09-19T04:34:36;15.00;94.50
59881;DHT22;45751;51.380;10.326;2023-09-19T04:37:05;14.90;94.50
59881;DHT22;45751;51.380;10.326;2023-09-19T04:39:32;15.00;94.40
59881;DHT22;45751;51.380;10.326;2023-09-19T04:42:01;15.00;94.80
59881;DHT22;45751;51.380;10.326;2023-09-19T04:44:27;14.90;94.30
59881;DHT22;45751;51.380;10.326;2023-09-19T04:46:55;14.90;94.40
59881;DHT22;45751;51.380;10.326;2023-09-19T04:49:22;14.90;94.40
59881;DHT22;45751;51.380;10.326;2023-09-19T04:51:49;14.90;94.30
59881;DHT22;45751;51.380;10.326;2023-09-19T04:54:16;14.90;94.30
59881;DHT22;45751;51.380;10.326;2023-09-19T04:56:44;14.90;94.30
59881;DHT22;45751;51.380;10.326;2023-09-19T04:59:15;14.90;94.20
59881;DHT22;45751;51.380;10.326;2023-09-19T05:01:42;14.90;94.20
59881;DHT22;45751;51.380;10.326;2023-09-19T05:04:10;14.80;94.30
59881;DHT22;45751;51.380;10.326;2023-09-19T05:06:36;14.90;94.30
59881;DHT22;45751;51.380;10.326;2023-09-19T05:09:03;14.90;94.20
59881;DHT22;45751;51.380;10.326;2023-09-19T05:11:32;14.90;94.10
59881;DHT22;45751;51.380;10.326;2023-09-19T05:13:59;14.80;94.20
59881;DHT22;45751;51.380;10.326;2023-09-19T05:16:30;14.80;94.10
59881;DHT22;45751;51.380;10.326;2023-09-19T05:19:00;14.80;94.10
59881;DHT22;45751;51.380;10.326;2023-09-19T05:21:28;14.90;94.20
59881;DHT22;45751;51.380;10.326;2023-09-19T05:23:56;14.80;94.00
59881;DHT22;45751;51.380;10.326;2023-09-19T05:26:23;14.90;93.90
59881;DHT22;45751;51.380;10.326;2023-09-19T05:28:50;14.90;93.90
59881;DHT22;45751;51.380;10.326;2023-09-19T05:31:17;14.90;93.90
59881;DHT22;45751;51.380;10.326;2023-09-19T05:33:59;14.80;93.80
59881;DHT22;45751;51.380;10.326;2023-09-19T05:36:27;14.90;93.70
59881;DHT22;45751;51.380;10.326;2023-09-19T05:38:56;14.80;93.70
59881;DHT22;45751;51.380;10.326;2023-09-19T05:41:23;14.80;93.70
59881;DHT22;45751;51.380;10.326;2023-09-19T05:43:50;14.90;93.70
59881;DHT22;45751;51.380;10.326;2023-09-19T05:46:17;14.80;93.60
59881;DHT22;45751;51.380;10.326;2023-09-19T05:48:45;14.90;93.60
59881;DHT22;45751;51.380;10.326;2023-09-19T05:51:16;14.90;93.50
59881;DHT22;45751;51.380;10.326;2023-09-19T05:53:45;14.90;93.40
59881;DHT22;45751;51.380;10.326;2023-09-19T05:56:15;14.90;93.40
59881;DHT22;45751;51.380;10.326;2023-09-19T05:58:41;14.90;93.20
59881;DHT22;45751;51.380;10.326;2023-09-19T06:01:11;14.90;93.10
59881;DHT22;45751;51.380;10.326;2023-09-19T06:03:38;14.90;93.20
59881;DHT22;45751;51.380;10.326;2023-09-19T06:06:05;14.90;93.20
59881;DHT22;45751;51.380;10.326;2023-09-19T06:08:33;14.90;93.20
59881;DHT22;45751;51.380;10.326;2023-09-19T06:11:00;14.90;93.10
59881;DHT22;45751;51.380;10.326;2023-09-19T06:13:30;14.90;93.10
59881;DHT22;45751;51.380;10.326;2023-09-19T06:15:59;14.90;93.20
59881;DHT22;45751;51.380;10.326;2023-09-19T06:18:29;14.90;93.10
59881;DHT22;45751;51.380;10.326;2023-09-19T06:21:00;14.90;93.30
59881;DHT22;45751;51.380;10.326;2023-09-19T06:23:27;14.90;93.30
59881;DHT22;45751;51.380;10.326;2023-09-19T06:25:55;14.90;93.10
59881;DHT22;45751;51.380;10.326;2023-09-19T06:28:23;14.90;92.90
59881;DHT22;45751;51.380;10.326;2023-09-19T06:30:51;15.00;92.80
59881;DHT22;45751;51.380;10.326;2023-09-19T06:33:18;14.90;92.80
59881;DHT22;45751;51.380;10.326;2023-09-19T06:35:48;14.90;92.70
59881;DHT22;45751;51.380;10.326;2023-09-19T06:38:15;14.90;92.60
59881;DHT22;45751;51.380;10.326;2023-09-19T06:40:42;14.90;91.90
59881;DHT22;45751;51.380;10.326;2023-09-19T06:43:10;14.90;91.90
59881;DHT22;45751;51.380;10.326;2023-09-19T06:45:37;14.90;91.80
59881;DHT22;45751;51.380;10.326;2023-09-19T06:48:04;14.90;91.60
59881;DHT22;45751;51.380;10.326;2023-09-19T06:50:33;14.90;91.60
59881;DHT22;45751;51.380;10.326;2023-09-19T06:53:01;14.80;91.50
59881;DHT22;45751;51.380;10.326;2023-09-19T06:55:28;14.90;91.10
59881;DHT22;45751;51.380;10.326;2023-09-19T06:57:58;14.80;91.10
59881;DHT22;45751;51.380;10.326;2023-09-19T07:00:26;14.80;91.50
59881;DHT22;45751;51.380;10.326;2023-09-19T07:02:59;14.80;91.10
59881;DHT22;45751;51.380;10.326;2023-09-19T07:05:28;14.70;90.60
59881;DHT22;45751;51.380;10.326;2023-09-19T07:07:55;14.80;90.40
59881;DHT22;45751;51.380;10.326;2023-09-19T07:10:22;14.80;90.00
59881;DHT22;45751;51.380;10.326;2023-09-19T07:13:01;14.80;90.40
59881;DHT22;45751;51.380;10.326;2023-09-19T07:15:32;14.80;89.00
59881;DHT22;45751;51.380;10.326;2023-09-19T07:18:02;14.80;89.30
59881;DHT22;45751;51.380;10.326;2023-09-19T07:20:29;14.80;89.20
59881;DHT22;45751;51.380;10.326;2023-09-19T07:22:59;14.80;87.60
59881;DHT22;45751;51.380;10.326;2023-09-19T07:25:30;14.80;88.10
59881;DHT22;45751;51.380;10.326;2023-09-19T07:27:58;14.80;87.40
59881;DHT22;45751;51.380;10.326;2023-09-19T07:30:27;14.80;88.10
59881;DHT22;45751;51.380;10.326;2023-09-19T07:32:54;14.80;87.10
59881;DHT22;45751;51.380;10.326;2023-09-19T07:35:22;14.80;85.80
59881;DHT22;45751;51.380;10.326;2023-09-19T07:37:49;14.70;85.70
59881;DHT22;45751;51.380;10.326;2023-09-19T07:40:18;14.80;87.10
59881;DHT22;45751;51.380;10.326;2023-09-19T07:42:47;14.80;86.30
59881;DHT22;45751;51.380;10.326;2023-09-19T07:45:17;14.80;85.60
59881;DHT22;45751;51.380;10.326;2023-09-19T07:47:45;14.80;85.10
59881;DHT22;45751;51.380;10.326;2023-09-19T07:50:15;14.80;84.80
59881;DHT22;45751;51.380;10.326;2023-09-19T07:52:43;14.80;83.10
59881;DHT22;45751;51.380;10.326;2023-09-19T07:55:11;14.90;82.60
59881;DHT22;45751;51.380;10.326;2023-09-19T07:57:44;14.90;82.00
59881;DHT22;45751;51.380;10.326;2023-09-19T08:00:11;14.90;81.60
59881;DHT22;45751;51.380;10.326;2023-09-19T08:02:42;14.90;80.80
59881;DHT22;45751;51.380;10.326;2023-09-19T08:05:10;14.90;80.50
59881;DHT22;45751;51.380;10.326;2023-09-19T08:07:39;14.90;81.10
59881;DHT22;45751;51.380;10.326;2023-09-19T08:10:07;14.90;80.00
59881;DHT22;45751;51.380;10.326;2023-09-19T08:12:35;15.00;78.60
59881;DHT22;45751;51.380;10.326;2023-09-19T08:15:03;15.00;77.20
59881;DHT22;45751;51.380;10.326;2023-09-19T08:17:34;15.00;77.80
59881;DHT22;45751;51.380;10.326;2023-09-19T08:20:02;15.00;77.60
59881;DHT22;45751;51.380;10.326;2023-09-19T08:22:31;15.00;78.00
59881;DHT22;45751;51.380;10.326;2023-09-19T08:24:59;15.00;78.00
59881;DHT22;45751;51.380;10.326;2023-09-19T08:27:26;15.10;77.60
59881;DHT22;45751;51.380;10.326;2023-09-19T08:29:55;15.10;77.30
59881;DHT22;45751;51.380;10.326;2023-09-19T08:32:22;15.10;78.20
59881;DHT22;45751;51.380;10.326;2023-09-19T08:34:51;15.10;79.40
59881;DHT22;45751;51.380;10.326;2023-09-19T08:37:18;15.10;78.50
59881;DHT22;45751;51.380;10.326;2023-09-19T08:39:45;15.20;77.60
59881;DHT22;45751;51.380;10.326;2023-09-19T08:42:12;15.20;78.00
59881;DHT22;45751;51.380;10.326;2023-09-19T08:44:40;15.20;79.00
59881;DHT22;45751;51.380;10.326;2023-09-19T08:47:10;15.30;78.10
59881;DHT22;45751;51.380;10.326;2023-09-19T08:50:03;15.30;76.20
59881;DHT22;45751;51.380;10.326;2023-09-19T08:52:42;15.30;76.20
59881;DHT22;45751;51.380;10.326;2023-09-19T08:55:13;15.30;76.60
59881;DHT22;45751;51.380;10.326;2023-09-19T08:57:51;15.30;75.20
59881;DHT22;45751;51.380;10.326;2023-09-19T09:00:19;15.30;75.50
59881;DHT22;45751;51.380;10.326;2023-09-19T09:02:48;15.30;75.50
59881;DHT22;45751;51.380;10.326;2023-09-19T09:05:16;15.30;74.70
59881;DHT22;45751;51.380;10.326;2023-09-19T09:07:50;15.30;74.50
59881;DHT22;45751;51.380;10.326;2023-09-19T09:10:27;15.30;75.30
59881;DHT22;45751;51.380;10.326;2023-09-19T09:12:54;15.30;74.90
59881;DHT22;45751;51.380;10.326;2023-09-19T09:15:24;15.40;75.50
59881;DHT22;45751;51.380;10.326;2023-09-19T09:17:52;15.40;74.40
59881;DHT22;45751;51.380;10.326;2023-09-19T09:20:25;15.40;74.40
59881;DHT22;45751;51.380;10.326;2023-09-19T09:22:56;15.40;75.20
59881;DHT22;45751;51.380;10.326;2023-09-19T09:25:51;15.50;74.80
59881;DHT22;45751;51.380;10.326;2023-09-19T09:28:26;15.50;74.30
59881;DHT22;45751;51.380;10.326;2023-09-19T09:30:55;15.60;73.70
59881;DHT22;45751;51.380;10.326;2023-09-19T09:33:23;15.60;73.60
59881;DHT22;45751;51.380;10.326;2023-09-19T09:35:55;15.60;72.90
59881;DHT22;45751;51.380;10.326;2023-09-19T09:38:42;15.60;73.10
59881;DHT22;45751;51.380;10.326;2023-09-19T09:41:10;15.70;73.60
59881;DHT22;45751;51.380;10.326;2023-09-19T09:43:42;15.70;72.00
59881;DHT22;45751;51.380;10.326;2023-09-19T09:46:19;15.70;71.40
59881;DHT22;45751;51.380;10.326;2023-09-19T09:49:03;15.70;71.70
59881;DHT22;45751;51.380;10.326;2023-09-19T09:52:05;15.80;71.00
59881;DHT22;45751;51.380;10.326;2023-09-19T09:55:00;15.80;71.90
59881;DHT22;45751;51.380;10.326;2023-09-19T09:57:28;15.80;71.80
59881;DHT22;45751;51.380;10.326;2023-09-19T09:59:58;15.80;71.80
59881;DHT22;45751;51.380;10.326;2023-09-19T10:02:29;15.80;71.20
59881;DHT22;45751;51.380;10.326;2023-09-19T10:04:57;15.90;69.70
59881;DHT22;45751;51.380;10.326;2023-09-19T10:07:41;15.90;68.50
59881;DHT22;45751;51.380;10.326;2023-09-19T10:10:33;15.90;68.40
59881;DHT22;45751;51.380;10.326;2023-09-19T10:13:12;15.90;69.00
59881;DHT22;45751;51.380;10.326;2023-09-19T10:15:43;15.90;69.90
59881;DHT22;45751;51.380;10.326;2023-09-19T10:18:22;15.90;69.60
59881;DHT22;45751;51.380;10.326;2023-09-19T10:20:49;16.00;70.30
59881;DHT22;45751;51.380;10.326;2023-09-19T10:23:19;16.00;70.20
59881;DHT22;45751;51.380;10.326;2023-09-19T10:25:51;16.00;69.10
59881;DHT22;45751;51.380;10.326;2023-09-19T10:28:20;16.10;68.20
59881;DHT22;45751;51.380;10.326;2023-09-19T10:30:50;16.00;67.50
59881;DHT22;45751;51.380;10.326;2023-09-19T10:33:21;16.00;67.30
59881;DHT22;45751;51.380;10.326;2023-09-19T10:35:50;16.00;66.70
59881;DHT22;45751;51.380;10.326;2023-09-19T10:38:28;16.00;67.10
59881;DHT22;45751;51.380;10.326;2023-09-19T10:40:57;16.10;67.90
59881;DHT22;45751;51.380;10.326;2023-09-19T10:43:32;16.10;67.50
59881;DHT22;45751;51.380;10.326;2023-09-19T10:46:09;16.10;67.50
59881;DHT22;45751;51.380;10.326;2023-09-19T10:48:39;16.10;67.00
59881;DHT22;45751;51.380;10.326;2023-09-19T10:51:18;16.10;67.60
59881;DHT22;45751;51.380;10.326;2023-09-19T10:54:04;16.20;66.90
59881;DHT22;45751;51.380;10.326;2023-09-19T10:56:36;16.20;67.60
59881;DHT22;45751;51.380;10.326;2023-09-19T10:59:11;16.20;67.60
59881;DHT22;45751;51.380;10.326;2023-09-19T11:01:51;16.30;66.70
59881;DHT22;45751;51.380;10.326;2023-09-19T11:04:29;16.30;66.20
59881;DHT22;45751;51.380;10.326;2023-09-19T11:09:49;16.40;63.70
59881;DHT22;45751;51.380;10.326;2023-09-19T11:15:05;16.40;64.10
59881;DHT22;45751;51.380;10.326;2023-09-19T11:17:35;16.50;64.10
59881;DHT22;45751;51.380;10.326;2023-09-19T11:30:44;16.60;62.10
59881;DHT22;45751;51.380;10.326;2023-09-19T11:33:31;16.70;62.80
59881;DHT22;45751;51.380;10.326;2023-09-19T11:46:54;16.80;60.30
59881;DHT22;45751;51.380;10.326;2023-09-19T11:49:27;16.80;60.70
59881;DHT22;45751;51.380;10.326;2023-09-19T11:51:57;16.90;61.00
59881;DHT22;45751;51.380;10.326;2023-09-19T11:54:27;16.90;61.70
59881;DHT22;45751;51.380;10.326;2023-09-19T11:57:00;16.90;61.50
59881;DHT22;45751;51.380;10.326;2023-09-19T11:59:29;16.90;61.30
59881;DHT22;45751;51.380;10.326;2023-09-19T12:01:58;17.00;61.50
59881;DHT22;45751;51.380;10.326;2023-09-19T12:04:36;17.10;60.90
59881;DHT22;45751;51.380;10.326;2023-09-19T12:07:09;17.10;61.40
59881;DHT22;45751;51.380;10.326;2023-09-19T12:10:03;17.10;61.10
59881;DHT22;45751;51.380;10.326;2023-09-19T12:12:34;17.20;62.00
59881;DHT22;45751;51.380;10.326;2023-09-19T12:15:01;17.20;62.00
59881;DHT22;45751;51.380;10.326;2023-09-19T12:17:40;17.30;60.70
59881;DHT22;45751;51.380;10.326;2023-09-19T12:20:10;17.40;60.60
59881;DHT22;45751;51.380;10.326;2023-09-19T12:22:41;17.40;60.40
59881;DHT22;45751;51.380;10.326;2023-09-19T12:25:10;17.50;60.90
59881;DHT22;45751;51.380;10.326;2023-09-19T12:27:45;17.50;60.70
59881;DHT22;45751;51.380;10.326;2023-09-19T12:30:17;17.60;60.30
59881;DHT22;45751;51.380;10.326;2023-09-19T12:32:53;17.60;60.00
59881;DHT22;45751;51.380;10.326;2023-09-19T12:35:28;17.60;60.60
59881;DHT22;45751;51.380;10.326;2023-09-19T12:37:57;17.60;60.60
59881;DHT22;45751;51.380;10.326;2023-09-19T12:40:25;17.60;61.20
59881;DHT22;45751;51.380;10.326;2023-09-19T12:42:57;17.60;61.30
59881;DHT22;45751;51.380;10.326;2023-09-19T12:45:30;17.70;60.30
59881;DHT22;45751;51.380;10.326;2023-09-19T12:48:20;17.70;59.40
59881;DHT22;45751;51.380;10.326;2023-09-19T12:51:08;17.80;59.40
59881;DHT22;45751;51.380;10.326;2023-09-19T12:53:44;18.00;59.40
59881;DHT22;45751;51.380;10.326;2023-09-19T12:56:14;18.10;58.70
59881;DHT22;45751;51.380;10.326;2023-09-19T12:58:50;18.20;59.50
59881;DHT22;45751;51.380;10.326;2023-09-19T13:01:18;18.30;56.50
59881;DHT22;45751;51.380;10.326;2023-09-19T13:03:45;18.40;55.90
59881;DHT22;45751;51.380;10.326;2023-09-19T13:06:13;18.50;56.60
59881;DHT22;45751;51.380;10.326;2023-09-19T13:08:43;18.50;55.10
59881;DHT22;45751;51.380;10.326;2023-09-19T13:11:17;18.60;56.40
59881;DHT22;45751;51.380;10.326;2023-09-19T13:13:48;18.70;54.40
59881;DHT22;45751;51.380;10.326;2023-09-19T13:16:17;18.70;54.60
59881;DHT22;45751;51.380;10.326;2023-09-19T13:18:54;18.70;54.40
59881;DHT22;45751;51.380;10.326;2023-09-19T13:23:58;18.80;53.60
59881;DHT22;45751;51.380;10.326;2023-09-19T13:26:43;18.80;52.90
59881;DHT22;45751;51.380;10.326;2023-09-19T13:29:10;18.80;53.40
59881;DHT22;45751;51.380;10.326;2023-09-19T13:31:37;18.70;53.20
59881;DHT22;45751;51.380;10.326;2023-09-19T13:34:08;18.60;53.40
59881;DHT22;45751;51.380;10.326;2023-09-19T13:36:35;18.50;53.50
59881;DHT22;45751;51.380;10.326;2023-09-19T13:39:03;18.40;54.00
59881;DHT22;45751;51.380;10.326;2023-09-19T13:41:31;18.40;54.00
59881;DHT22;45751;51.380;10.326;2023-09-19T13:43:59;18.40;53.20
59881;DHT22;45751;51.380;10.326;2023-09-19T13:46:26;18.40;53.90
59881;DHT22;45751;51.380;10.326;2023-09-19T13:48:54;18.40;53.40
59881;DHT22;45751;51.380;10.326;2023-09-19T13:51:21;18.50;53.30
59881;DHT22;45751;51.380;10.326;2023-09-19T13:53:52;18.60;54.20
59881;DHT22;45751;51.380;10.326;2023-09-19T13:56:19;18.70;53.70
59881;DHT22;45751;51.380;10.326;2023-09-19T13:58:46;18.80;53.50
59881;DHT22;45751;51.380;10.326;2023-09-19T14:01:13;18.80;53.90
59881;DHT22;45751;51.380;10.326;2023-09-19T14:03:40;18.90;53.90
59881;DHT22;45751;51.380;10.326;2023-09-19T14:06:08;19.00;52.10
59881;DHT22;45751;51.380;10.326;2023-09-19T14:08:34;19.00;51.30
59881;DHT22;45751;51.380;10.326;2023-09-19T14:11:08;19.10;51.50
59881;DHT22;45751;51.380;10.326;2023-09-19T14:13:35;19.20;52.00
59881;DHT22;45751;51.380;10.326;2023-09-19T14:16:04;19.30;52.10
59881;DHT22;45751;51.380;10.326;2023-09-19T14:18:32;19.30;51.60
59881;DHT22;45751;51.380;10.326;2023-09-19T14:21:03;19.40;51.70
59881;DHT22;45751;51.380;10.326;2023-09-19T14:23:39;19.40;53.20
59881;DHT22;45751;51.380;10.326;2023-09-19T14:26:08;19.40;52.50
59881;DHT22;45751;51.380;10.326;2023-09-19T14:28:36;19.40;52.00
59881;DHT22;45751;51.380;10.326;2023-09-19T14:31:07;19.40;51.50
59881;DHT22;45751;51.380;10.326;2023-09-19T14:33:35;19.50;51.50
59881;DHT22;45751;51.380;10.326;2023-09-19T14:36:04;19.50;51.50
59881;DHT22;45751;51.380;10.326;2023-09-19T14:38:33;19.60;51.60
59881;DHT22;45751;51.380;10.326;2023-09-19T14:41:05;19.70;51.70
59881;DHT22;45751;51.380;10.326;2023-09-19T14:43:32;19.80;50.90
59881;DHT22;45751;51.380;10.326;2023-09-19T14:46:06;19.80;50.40
59881;DHT22;45751;51.380;10.326;2023-09-19T14:48:39;19.80;50.10
59881;DHT22;45751;51.380;10.326;2023-09-19T14:51:07;19.80;49.60
59881;DHT22;45751;51.380;10.326;2023-09-19T14:53:36;19.80;49.50
59881;DHT22;45751;51.380;10.326;2023-09-19T14:56:07;19.90;49.80
59881;DHT22;45751;51.380;10.326;2023-09-19T14:58:35;19.90;49.70
59881;DHT22;45751;51.380;10.326;2023-09-19T15:01:13;20.00;49.50
59881;DHT22;45751;51.380;10.326;2023-09-19T15:03:41;20.00;49.30
59881;DHT22;45751;51.380;10.326;2023-09-19T15:06:10;20.00;48.50
59881;DHT22;45751;51.380;10.326;2023-09-19T15:08:41;20.00;49.10
59881;DHT22;45751;51.380;10.326;2023-09-19T15:11:14;20.10;49.30
59881;DHT22;45751;51.380;10.326;2023-09-19T15:13:45;20.20;49.40
59881;DHT22;45751;51.380;10.326;2023-09-19T15:16:13;20.30;49.10
59881;DHT22;45751;51.380;10.326;2023-09-19T15:18:42;20.30;49.00
59881;DHT22;45751;51.380;10.326;2023-09-19T15:21:10;20.40;48.10
59881;DHT22;45751;51.380;10.326;2023-09-19T15:23:39;20.40;48.20
59881;DHT22;45751;51.380;10.326;2023-09-19T15:26:09;20.40;48.10
59881;DHT22;45751;51.380;10.326;2023-09-19T15:28:36;20.50;48.00
59881;DHT22;45751;51.380;10.326;2023-09-19T15:31:06;20.50;47.60
59881;DHT22;45751;51.380;10.326;2023-09-19T15:33:33;20.50;47.60
59881;DHT22;45751;51.380;10.326;2023-09-19T15:36:08;20.50;47.20
59881;DHT22;45751;51.380;10.326;2023-09-19T15:39:08;20.50;47.30
59881;DHT22;45751;51.380;10.326;2023-09-19T15:41:39;20.50;47.40
59881;DHT22;45751;51.380;10.326;2023-09-19T15:44:14;20.60;47.70
59881;DHT22;45751;51.380;10.326;2023-09-19T15:46:43;20.60;47.60
59881;DHT22;45751;51.380;10.326;2023-09-19T15:49:11;20.60;48.00
59881;DHT22;45751;51.380;10.326;2023-09-19T15:51:38;20.60;48.40
59881;DHT22;45751;51.380;10.326;2023-09-19T15:54:09;20.60;48.40
59881;DHT22;45751;51.380;10.326;2023-09-19T15:56:36;20.60;48.80
59881;DHT22;45751;51.380;10.326;2023-09-19T15:59:04;20.60;49.60
59881;DHT22;45751;51.380;10.326;2023-09-19T16:01:31;20.60;48.50
59881;DHT22;45751;51.380;10.326;2023-09-19T16:03:58;20.60;49.20
59881;DHT22;45751;51.380;10.326;2023-09-19T16:06:29;20.50;48.30
59881;DHT22;45751;51.380;10.326;2023-09-19T16:08:58;20.50;48.00
59881;DHT22;45751;51.380;10.326;2023-09-19T16:11:27;20.40;47.60
59881;DHT22;45751;51.380;10.326;2023-09-19T16:13:54;20.30;47.90
59881;DHT22;45751;51.380;10.326;2023-09-19T16:16:23;20.30;48.40
59881;DHT22;45751;51.380;10.326;2023-09-19T16:18:56;20.30;48.60
59881;DHT22;45751;51.380;10.326;2023-09-19T16:21:25;20.30;48.80
59881;DHT22;45751;51.380;10.326;2023-09-19T16:23:56;20.30;49.00